createdAt,value
2019-05-05T00:00:27.937Z,28.80
2019-05-05T00:02:59.709Z,28.60
2019-05-05T00:05:37.896Z,28.50
2019-05-05T00:08:05.145Z,28.40
2019-05-05T00:10:54.178Z,28.30
2019-05-05T00:13:32.142Z,28.30
2019-05-05T00:16:16.576Z,28.30
2019-05-05T00:18:44.771Z,28.50
2019-05-05T00:21:11.750Z,28.50
2019-05-05T00:23:39.158Z,28.40
2019-05-05T00:26:06.197Z,28.30
2019-05-05T00:28:35.271Z,28.40
2019-05-05T00:31:02.256Z,28.50
2019-05-05T00:33:30.992Z,28.60
2019-05-05T00:36:00.571Z,28.60
2019-05-05T00:38:27.893Z,28.60
2019-05-05T00:40:55.126Z,28.70
2019-05-05T00:43:22.519Z,28.70
2019-05-05T00:45:55.652Z,29.20
2019-05-05T00:48:25.517Z,28.50
2019-05-05T00:50:52.616Z,28.50
2019-05-05T00:53:20.131Z,28.50
2019-05-05T00:55:47.164Z,28.50
2019-05-05T00:58:14.387Z,28.50
2019-05-05T01:00:46.404Z,28.50
2019-05-05T01:03:15.327Z,28.50
2019-05-05T01:05:55.226Z,28.60
2019-05-05T01:08:24.963Z,28.40
2019-05-05T01:10:52.003Z,28.40
2019-05-05T01:13:19.075Z,28.50
2019-05-05T01:15:45.966Z,28.60
2019-05-05T01:18:15.161Z,28.80
2019-05-05T01:20:42.057Z,28.80
2019-05-05T01:23:08.834Z,28.80
2019-05-05T01:25:35.724Z,29.00
2019-05-05T01:28:04.853Z,28.90
2019-05-05T01:30:35.054Z,28.80
2019-05-05T01:33:05.457Z,28.70
2019-05-05T01:35:34.228Z,28.70
2019-05-05T01:38:04.784Z,28.70
2019-05-05T01:40:50.684Z,28.60
2019-05-05T01:43:17.691Z,28.70
2019-05-05T01:45:45.320Z,28.70
2019-05-05T01:48:14.228Z,28.70
2019-05-05T01:50:41.044Z,28.70
2019-05-05T01:53:07.818Z,28.70
2019-05-05T01:55:35.392Z,28.80
2019-05-05T01:58:04.582Z,28.80
2019-05-05T02:00:31.204Z,28.80
2019-05-05T02:02:58.917Z,28.90
2019-05-05T02:05:25.611Z,29.00
2019-05-05T02:07:52.376Z,29.10
2019-05-05T02:10:20.401Z,29.10
2019-05-05T02:12:47.191Z,29.20
2019-05-05T02:15:15.179Z,29.20
2019-05-05T02:17:44.564Z,29.10
2019-05-05T02:20:28.409Z,29.10
2019-05-05T02:22:44.593Z,29.00
2019-05-05T02:25:14.588Z,29.00
2019-05-05T02:27:41.429Z,29.00
2019-05-05T02:30:15.967Z,29.00
2019-05-05T02:32:49.648Z,29.10
2019-05-05T02:35:16.780Z,29.20
2019-05-05T02:37:45.718Z,29.50
2019-05-05T02:40:15.998Z,29.40
2019-05-05T02:42:45.413Z,29.40
2019-05-05T02:45:17.186Z,29.40
2019-05-05T02:47:46.475Z,29.60
2019-05-05T02:50:15.591Z,29.70
2019-05-05T02:52:44.302Z,29.70
2019-05-05T02:55:11.210Z,29.70
2019-05-05T02:57:38.701Z,29.70
2019-05-05T03:00:16.883Z,30.00
2019-05-05T03:02:43.653Z,29.90
2019-05-05T03:05:10.721Z,30.60
2019-05-05T03:07:38.432Z,30.00
2019-05-05T03:10:06.690Z,30.00
2019-05-05T03:12:36.673Z,29.90
2019-05-05T03:15:04.523Z,29.90
2019-05-05T03:17:31.405Z,29.90
2019-05-05T03:19:58.805Z,30.40
2019-05-05T03:22:26.353Z,29.80
2019-05-05T03:24:54.098Z,29.80
2019-05-05T03:27:23.600Z,30.00
2019-05-05T03:29:50.374Z,30.30
2019-05-05T03:32:18.130Z,30.00
2019-05-05T03:34:44.925Z,29.90
2019-05-05T03:37:14.601Z,29.90
2019-05-05T03:39:44.461Z,29.80
2019-05-05T03:42:29.072Z,29.80
2019-05-05T03:44:57.983Z,29.70
2019-05-05T03:47:26.662Z,29.80
2019-05-05T03:49:54.633Z,29.90
2019-05-05T03:52:21.518Z,29.70
2019-05-05T03:54:49.676Z,29.80
2019-05-05T03:57:17.085Z,29.70
2019-05-05T03:59:44.339Z,29.70
2019-05-05T04:02:14.157Z,29.70
2019-05-05T04:04:45.704Z,29.50
2019-05-05T04:07:13.943Z,29.60
2019-05-05T04:09:41.048Z,29.50
2019-05-05T04:12:08.177Z,29.50
2019-05-05T04:14:36.692Z,29.60
2019-05-05T04:17:22.064Z,29.60
2019-05-05T04:19:57.310Z,29.50
2019-05-05T04:22:24.337Z,29.60
2019-05-05T04:24:51.035Z,29.70
2019-05-05T04:27:17.689Z,29.80
2019-05-05T04:29:44.658Z,29.90
2019-05-05T04:32:11.424Z,29.90
2019-05-05T04:34:38.120Z,30.00
2019-05-05T04:37:05.094Z,29.90
2019-05-05T04:39:31.792Z,30.00
2019-05-05T04:41:59.126Z,30.00
2019-05-05T04:44:26.241Z,29.80
2019-05-05T04:46:54.797Z,29.80
2019-05-05T04:49:33.961Z,29.60
2019-05-05T04:52:04.114Z,29.70
2019-05-05T04:54:33.450Z,29.40
2019-05-05T04:57:00.726Z,29.40
2019-05-05T04:59:27.560Z,29.40
2019-05-05T05:01:56.247Z,29.40
2019-05-05T05:04:28.105Z,29.40
2019-05-05T05:07:04.617Z,29.30
2019-05-05T05:09:34.046Z,29.20
2019-05-05T05:12:00.975Z,29.30
2019-05-05T05:14:28.620Z,29.30
2019-05-05T05:16:57.380Z,29.40
2019-05-05T05:19:24.448Z,29.30
2019-05-05T05:21:59.353Z,29.30
2019-05-05T05:24:19.997Z,29.60
2019-05-05T05:26:46.981Z,29.50
2019-05-05T05:29:15.104Z,29.50
2019-05-05T05:31:44.299Z,29.50
2019-05-05T05:34:11.404Z,29.60
2019-05-05T05:36:38.474Z,29.70
2019-05-05T05:39:11.358Z,29.60
2019-05-05T05:41:47.910Z,29.70
2019-05-05T05:44:33.947Z,29.70
2019-05-05T05:47:14.719Z,29.80
2019-05-05T05:49:50.083Z,30.00
2019-05-05T05:52:19.158Z,29.90
2019-05-05T05:54:46.167Z,29.90
2019-05-05T05:57:13.963Z,30.00
2019-05-05T05:59:40.934Z,30.00
2019-05-05T06:02:12.436Z,30.20
2019-05-05T06:04:37.688Z,29.90
2019-05-05T06:07:05.509Z,29.70
2019-05-05T06:09:34.435Z,29.80
2019-05-05T06:12:03.607Z,29.80
2019-05-05T06:14:34.144Z,29.90
2019-05-05T06:17:00.165Z,29.80
2019-05-05T06:19:27.505Z,29.90
2019-05-05T06:21:54.549Z,30.00
2019-05-05T06:24:21.501Z,30.00
2019-05-05T06:26:48.855Z,30.10
2019-05-05T06:29:15.822Z,29.80
2019-05-05T06:31:44.795Z,29.80
2019-05-05T06:34:13.928Z,30.00
2019-05-05T06:36:41.187Z,30.20
2019-05-05T06:39:08.188Z,30.20
2019-05-05T06:41:43.477Z,30.00
2019-05-05T06:44:14.097Z,29.90
2019-05-05T06:46:44.577Z,30.00
2019-05-05T06:49:13.683Z,30.10
2019-05-05T06:51:40.759Z,30.00
2019-05-05T06:54:08.051Z,29.80
2019-05-05T06:56:35.349Z,29.50
2019-05-05T06:59:04.300Z,29.70
2019-05-05T07:01:31.083Z,29.60
2019-05-05T07:03:58.652Z,29.60
2019-05-05T07:06:25.536Z,29.50
2019-05-05T07:08:54.342Z,29.10
2019-05-05T07:11:23.650Z,29.10
2019-05-05T07:13:50.729Z,29.20
2019-05-05T07:16:17.846Z,29.10
2019-05-05T07:18:45.340Z,29.00
2019-05-05T07:21:14.087Z,28.40
2019-05-05T07:23:41.747Z,28.30
2019-05-05T07:26:09.384Z,28.00
2019-05-05T07:28:36.936Z,27.70
2019-05-05T07:31:04.540Z,27.50
2019-05-05T07:33:31.828Z,28.20
2019-05-05T07:36:19.163Z,27.30
2019-05-05T07:38:48.374Z,27.20
2019-05-05T07:41:15.504Z,27.10
2019-05-05T07:43:43.776Z,27.30
2019-05-05T07:46:10.997Z,27.30
2019-05-05T07:48:38.513Z,27.20
2019-05-05T07:51:05.545Z,27.20
2019-05-05T07:53:33.553Z,26.50
2019-05-05T07:56:00.876Z,25.80
2019-05-05T07:58:28.225Z,25.90
2019-05-05T08:00:55.482Z,25.90
2019-05-05T08:03:23.665Z,25.50
2019-05-05T08:05:50.601Z,25.80
2019-05-05T08:08:18.802Z,25.70
2019-05-05T08:10:46.490Z,25.60
2019-05-05T08:13:14.092Z,25.40
2019-05-05T08:15:56.262Z,25.10
2019-05-05T08:18:19.094Z,25.50
2019-05-05T08:20:48.958Z,25.60
2019-05-05T08:23:29.250Z,25.70
2019-05-05T08:25:49.240Z,25.50
2019-05-05T08:28:21.260Z,25.50
2019-05-05T08:30:50.279Z,25.50
2019-05-05T08:33:17.707Z,25.80
2019-05-05T08:35:45.015Z,24.60
2019-05-05T08:38:13.789Z,24.00
2019-05-05T08:40:43.829Z,24.20
2019-05-05T08:43:13.848Z,23.60
2019-05-05T08:45:41.172Z,23.40
2019-05-05T08:48:08.664Z,23.50
2019-05-05T08:50:37.621Z,23.60
2019-05-05T08:53:08.509Z,23.60
2019-05-05T08:55:35.745Z,22.90
2019-05-05T08:58:04.604Z,23.00
2019-05-05T09:00:33.808Z,22.90
2019-05-05T09:03:03.558Z,22.40
2019-05-05T09:05:30.655Z,22.50
2019-05-05T09:07:58.016Z,22.50
2019-05-05T09:10:26.826Z,22.60
2019-05-05T09:12:55.696Z,23.10
2019-05-05T09:15:24.261Z,23.00
2019-05-05T09:17:51.683Z,23.10
2019-05-05T09:20:18.782Z,23.50
2019-05-05T09:22:45.729Z,23.40
2019-05-05T09:25:18.626Z,23.40
2019-05-05T09:27:54.336Z,23.00
2019-05-05T09:30:34.131Z,23.10
2019-05-05T09:33:03.591Z,23.20
2019-05-05T09:35:30.993Z,23.20
2019-05-05T09:37:59.068Z,23.00
2019-05-05T09:40:37.599Z,23.10
2019-05-05T09:43:06.821Z,23.50
2019-05-05T09:45:34.478Z,23.10
2019-05-05T09:48:01.791Z,22.70
2019-05-05T09:50:29.884Z,23.00
2019-05-05T09:52:57.421Z,23.30
2019-05-05T09:55:24.595Z,23.30
2019-05-05T09:57:51.665Z,22.80
2019-05-05T10:00:18.767Z,22.80
2019-05-05T10:02:45.820Z,22.90
2019-05-05T10:05:14.505Z,23.20
2019-05-05T10:07:43.883Z,22.30
2019-05-05T10:10:13.680Z,22.90
2019-05-05T10:12:40.871Z,22.50
2019-05-05T10:15:08.568Z,22.80
2019-05-05T10:17:36.102Z,23.10
2019-05-05T10:20:09.179Z,23.30
2019-05-05T10:22:36.363Z,23.40
2019-05-05T10:25:25.451Z,22.90
2019-05-05T10:27:53.975Z,23.20
2019-05-05T10:30:23.823Z,23.20
2019-05-05T10:32:54.571Z,23.40
2019-05-05T10:35:23.737Z,23.70
2019-05-05T10:37:51.446Z,23.60
2019-05-05T10:40:21.828Z,22.90
2019-05-05T10:42:49.492Z,23.00
2019-05-05T10:45:24.136Z,23.00
2019-05-05T10:47:52.140Z,22.90
2019-05-05T10:50:20.293Z,22.60
2019-05-05T10:52:48.649Z,22.80
2019-05-05T10:55:17.238Z,22.90
2019-05-05T10:57:44.688Z,22.90
2019-05-05T11:00:15.423Z,22.90
2019-05-05T11:02:42.537Z,23.40
2019-05-05T11:05:10.250Z,22.70
2019-05-05T11:07:38.432Z,22.70
2019-05-05T11:10:07.420Z,22.40
2019-05-05T11:12:35.419Z,22.90
2019-05-05T11:15:04.336Z,22.80
2019-05-05T11:17:32.567Z,22.10
2019-05-05T11:20:00.010Z,22.10
2019-05-05T11:22:27.652Z,22.40
2019-05-05T11:25:00.873Z,22.10
2019-05-05T11:27:25.954Z,22.40
2019-05-05T11:30:14.278Z,22.60
2019-05-05T11:33:00.729Z,22.50
2019-05-05T11:35:47.261Z,22.80
2019-05-05T11:38:15.898Z,22.80
2019-05-05T11:40:44.069Z,23.10
2019-05-05T11:43:14.210Z,23.00
2019-05-05T11:45:43.707Z,24.00
2019-05-05T11:48:11.281Z,23.20
2019-05-05T11:50:39.451Z,24.00
2019-05-05T11:53:07.099Z,23.80
2019-05-05T11:55:34.448Z,23.70
2019-05-05T11:58:03.451Z,24.00
2019-05-05T12:00:30.497Z,23.80
2019-05-05T12:02:58.366Z,23.60
2019-05-05T12:05:25.988Z,23.50
2019-05-05T12:07:54.128Z,23.70
2019-05-05T12:10:24.639Z,23.80
2019-05-05T12:12:53.723Z,24.40
2019-05-05T12:15:23.797Z,24.30
2019-05-05T12:17:50.707Z,24.40
2019-05-05T12:20:36.344Z,24.40
2019-05-05T12:23:05.740Z,24.30
2019-05-05T12:25:37.476Z,23.80
2019-05-05T12:28:24.119Z,23.60
2019-05-05T12:31:14.194Z,23.80
2019-05-05T12:33:44.067Z,23.60
2019-05-05T12:36:11.278Z,23.90
2019-05-05T12:38:38.464Z,23.70
2019-05-05T12:41:06.447Z,23.70
2019-05-05T12:43:34.160Z,23.80
2019-05-05T12:46:06.096Z,24.10
2019-05-05T12:48:38.432Z,23.80
2019-05-05T12:51:05.709Z,23.90
2019-05-05T12:53:33.931Z,24.30
2019-05-05T12:56:04.065Z,23.90
2019-05-05T12:58:33.578Z,24.00
2019-05-05T13:01:06.646Z,24.00
2019-05-05T13:03:34.683Z,23.80
2019-05-05T13:06:04.100Z,23.80
2019-05-05T13:08:31.538Z,23.90
2019-05-05T13:10:59.523Z,23.80
2019-05-05T13:13:27.603Z,23.80
2019-05-05T13:15:54.862Z,23.60
2019-05-05T13:18:24.446Z,23.90
2019-05-05T13:20:59.902Z,24.00
2019-05-05T13:23:46.466Z,23.90
2019-05-05T13:26:28.358Z,24.20
2019-05-05T13:28:55.618Z,24.30
2019-05-05T13:31:22.659Z,24.40
2019-05-05T13:33:49.918Z,23.80
2019-05-05T13:36:17.191Z,23.50
2019-05-05T13:38:44.740Z,23.90
2019-05-05T13:41:12.297Z,24.30
2019-05-05T13:43:39.547Z,24.30
2019-05-05T13:46:11.356Z,23.70
2019-05-05T13:48:38.685Z,24.00
2019-05-05T13:51:10.749Z,24.40
2019-05-05T13:53:38.817Z,23.90
2019-05-05T13:56:11.902Z,24.50
2019-05-05T13:58:37.001Z,24.90
2019-05-05T14:01:03.943Z,25.00
2019-05-05T14:03:31.528Z,25.50
2019-05-05T14:05:59.324Z,25.20
2019-05-05T14:08:26.646Z,25.80
2019-05-05T14:10:56.531Z,25.70
2019-05-05T14:13:24.823Z,25.60
2019-05-05T14:15:54.375Z,25.50
2019-05-05T14:18:21.202Z,25.20
2019-05-05T14:20:48.586Z,25.60
2019-05-05T14:23:16.085Z,25.80
2019-05-05T14:25:44.083Z,25.70
2019-05-05T14:28:11.110Z,25.30
2019-05-05T14:30:43.898Z,25.70
2019-05-05T14:33:13.854Z,26.30
2019-05-05T14:35:53.945Z,26.00
2019-05-05T14:38:26.407Z,26.10
2019-05-05T14:40:53.919Z,25.50
2019-05-05T14:43:21.467Z,26.00
2019-05-05T14:45:48.828Z,25.80
2019-05-05T14:48:15.973Z,25.70
2019-05-05T14:50:43.815Z,26.00
2019-05-05T14:53:11.097Z,26.50
2019-05-05T14:55:38.428Z,26.20
2019-05-05T14:58:05.893Z,26.10
2019-05-05T15:00:33.769Z,25.50
2019-05-05T15:03:01.218Z,25.80
2019-05-05T15:05:36.111Z,26.20
2019-05-05T15:08:13.450Z,26.00
2019-05-05T15:11:01.020Z,26.50
2019-05-05T15:13:28.117Z,26.10
2019-05-05T15:15:55.044Z,26.30
2019-05-05T15:18:24.182Z,26.20
2019-05-05T15:20:51.834Z,25.70
2019-05-05T15:23:18.986Z,26.10
2019-05-05T15:25:46.062Z,26.10
2019-05-05T15:28:13.863Z,26.00
2019-05-05T15:30:41.030Z,26.00
2019-05-05T15:33:08.295Z,26.30
2019-05-05T15:35:35.223Z,26.10
2019-05-05T15:38:02.123Z,26.20
2019-05-05T15:40:29.081Z,26.30
2019-05-05T15:42:56.025Z,26.40
2019-05-05T15:45:23.544Z,26.50
2019-05-05T15:47:51.199Z,26.20
2019-05-05T15:50:18.448Z,26.40
2019-05-05T15:52:46.374Z,26.20
2019-05-05T15:55:14.105Z,26.40
2019-05-05T15:57:41.452Z,26.70
2019-05-05T16:00:09.943Z,26.90
2019-05-05T16:02:37.121Z,26.50
2019-05-05T16:05:08.482Z,26.80
2019-05-05T16:07:35.683Z,27.10
2019-05-05T16:10:07.694Z,27.00
2019-05-05T16:12:39.411Z,26.80
2019-05-05T16:15:11.358Z,27.10
2019-05-05T16:17:40.278Z,27.30
2019-05-05T16:20:09.191Z,27.60
2019-05-05T16:22:38.456Z,27.10
2019-05-05T16:25:27.147Z,27.70
2019-05-05T16:27:56.306Z,27.90
2019-05-05T16:30:24.904Z,28.00
2019-05-05T16:32:54.996Z,28.00
2019-05-05T16:35:20.974Z,28.30
2019-05-05T16:37:48.106Z,28.60
2019-05-05T16:40:15.568Z,28.10
2019-05-05T16:42:43.741Z,28.20
2019-05-05T16:45:13.623Z,28.10
2019-05-05T16:47:41.661Z,28.10
2019-05-05T16:50:09.270Z,28.20
2019-05-05T16:52:41.166Z,28.60
2019-05-05T16:55:13.574Z,28.10
2019-05-05T16:57:40.649Z,28.20
2019-05-05T17:00:08.324Z,28.10
2019-05-05T17:02:35.982Z,28.10
2019-05-05T17:05:04.420Z,28.20
2019-05-05T17:07:34.312Z,28.30
2019-05-05T17:10:01.904Z,28.00
2019-05-05T17:12:30.546Z,28.20
2019-05-05T17:14:59.739Z,28.00
2019-05-05T17:17:29.794Z,28.20
2019-05-05T17:19:58.938Z,28.10
2019-05-05T17:22:27.965Z,27.30
2019-05-05T17:24:55.182Z,27.70
2019-05-05T17:27:23.675Z,27.20
2019-05-05T17:29:51.025Z,27.70
2019-05-05T17:32:20.219Z,27.80
2019-05-05T17:34:48.388Z,27.80
2019-05-05T17:37:15.342Z,27.90
2019-05-05T17:39:44.232Z,28.00
2019-05-05T17:42:14.228Z,27.90
2019-05-05T17:45:00.143Z,27.90
2019-05-05T17:47:34.252Z,27.60
2019-05-05T17:50:06.416Z,27.90
2019-05-05T17:52:47.870Z,28.10
2019-05-05T17:55:35.236Z,28.20
2019-05-05T17:58:02.827Z,28.50
2019-05-05T18:00:34.069Z,28.10
2019-05-05T18:03:04.368Z,28.20
2019-05-05T18:05:51.344Z,28.10
2019-05-05T18:08:37.613Z,28.00
2019-05-05T18:11:19.652Z,28.10
2019-05-05T18:13:58.038Z,28.10
2019-05-05T18:16:27.053Z,27.90
2019-05-05T18:18:54.860Z,27.70
2019-05-05T18:21:23.660Z,28.10
2019-05-05T18:23:50.907Z,28.30
2019-05-05T18:26:18.366Z,28.30
2019-05-05T18:28:48.001Z,28.20
2019-05-05T18:31:14.397Z,28.00
2019-05-05T18:33:41.570Z,28.00
2019-05-05T18:36:09.116Z,28.00
2019-05-05T18:38:37.416Z,28.10
2019-05-05T18:41:06.281Z,28.40
2019-05-05T18:43:38.492Z,28.20
2019-05-05T18:46:06.018Z,28.30
2019-05-05T18:48:34.483Z,28.20
2019-05-05T18:51:03.751Z,28.20
2019-05-05T18:53:30.840Z,28.20
2019-05-05T18:55:58.255Z,28.10
2019-05-05T18:58:30.333Z,28.10
2019-05-05T19:01:17.987Z,28.00
2019-05-05T19:03:54.476Z,27.90
2019-05-05T19:06:24.054Z,27.90
2019-05-05T19:08:57.201Z,27.90
2019-05-05T19:11:24.855Z,28.20
2019-05-05T19:13:54.074Z,28.00
2019-05-05T19:16:23.712Z,28.10
2019-05-05T19:18:51.109Z,28.30
2019-05-05T19:21:20.937Z,28.10
2019-05-05T19:23:49.419Z,28.20
2019-05-05T19:26:19.155Z,28.30
2019-05-05T19:28:50.284Z,28.60
2019-05-05T19:31:20.982Z,27.90
2019-05-05T19:33:48.259Z,27.70
2019-05-05T19:36:15.739Z,27.80
2019-05-05T19:38:44.152Z,27.70
2019-05-05T19:41:11.658Z,27.70
2019-05-05T19:43:55.141Z,27.30
2019-05-05T19:46:34.713Z,27.40
2019-05-05T19:49:14.578Z,27.40
2019-05-05T19:51:44.564Z,27.00
2019-05-05T19:54:11.427Z,27.20
2019-05-05T19:56:38.787Z,27.10
2019-05-05T19:59:06.865Z,26.40
2019-05-05T20:01:37.662Z,26.70
2019-05-05T20:04:04.907Z,26.60
2019-05-05T20:06:32.324Z,26.60
2019-05-05T20:08:59.743Z,26.50
2019-05-05T20:11:26.970Z,26.30
2019-05-05T20:14:07.005Z,26.50
2019-05-05T20:16:28.603Z,26.50
2019-05-05T20:18:57.471Z,26.50
2019-05-05T20:21:24.740Z,26.50
2019-05-05T20:23:51.846Z,26.40
2019-05-05T20:26:19.361Z,26.00
2019-05-05T20:28:46.827Z,26.30
2019-05-05T20:31:16.590Z,26.30
2019-05-05T20:33:48.993Z,26.40
2019-05-05T20:36:17.973Z,26.40
2019-05-05T20:38:54.866Z,26.30
2019-05-05T20:41:24.608Z,26.50
2019-05-05T20:43:51.304Z,26.60
2019-05-05T20:46:18.958Z,26.80
2019-05-05T20:48:46.222Z,27.00
2019-05-05T20:51:13.779Z,27.20
2019-05-05T20:53:41.891Z,27.30
2019-05-05T20:56:09.094Z,27.10
2019-05-05T20:58:35.978Z,27.40
2019-05-05T21:01:04.621Z,27.50
2019-05-05T21:03:31.919Z,27.70
2019-05-05T21:05:59.285Z,27.70
2019-05-05T21:08:26.502Z,27.70
2019-05-05T21:10:53.816Z,27.80
2019-05-05T21:13:21.198Z,27.90
2019-05-05T21:15:49.326Z,28.10
2019-05-05T21:18:16.236Z,28.20
2019-05-05T21:20:43.803Z,28.30
2019-05-05T21:23:14.368Z,28.30
2019-05-05T21:25:50.879Z,28.30
2019-05-05T21:28:18.543Z,28.30
2019-05-05T21:30:45.496Z,28.10
2019-05-05T21:33:12.460Z,28.30
2019-05-05T21:35:39.787Z,28.10
2019-05-05T21:38:07.043Z,28.60
2019-05-05T21:40:34.739Z,28.00
2019-05-05T21:43:04.285Z,28.10
2019-05-05T21:45:31.475Z,27.90
2019-05-05T21:47:58.936Z,27.90
2019-05-05T21:50:46.597Z,27.80
2019-05-05T21:53:34.180Z,27.70
2019-05-05T21:56:04.302Z,27.70
2019-05-05T21:58:34.610Z,27.60
2019-05-05T22:01:04.399Z,27.60
2019-05-05T22:03:36.962Z,27.40
2019-05-05T22:06:03.859Z,27.50
2019-05-05T22:08:30.620Z,27.40
2019-05-05T22:10:57.907Z,27.40
2019-05-05T22:13:24.811Z,27.20
2019-05-05T22:15:51.700Z,27.40
2019-05-05T22:18:18.825Z,27.20
2019-05-05T22:20:54.659Z,27.20
2019-05-05T22:23:21.833Z,26.90
2019-05-05T22:25:48.630Z,27.00
2019-05-05T22:28:15.733Z,26.80
2019-05-05T22:30:43.724Z,27.40
2019-05-05T22:33:10.660Z,26.90
2019-05-05T22:35:37.439Z,26.90
2019-05-05T22:38:06.124Z,26.80
2019-05-05T22:40:34.592Z,26.60
2019-05-05T22:43:03.654Z,26.70
2019-05-05T22:45:31.668Z,26.70
2019-05-05T22:47:58.948Z,26.60
2019-05-05T22:50:26.212Z,26.40
2019-05-05T22:52:54.509Z,26.50
2019-05-05T22:55:24.783Z,26.40
2019-05-05T22:57:53.904Z,26.30
2019-05-05T23:00:28.423Z,26.40
2019-05-05T23:03:13.660Z,26.40
2019-05-05T23:05:43.910Z,26.30
2019-05-05T23:08:11.100Z,26.30
2019-05-05T23:10:38.104Z,26.20
2019-05-05T23:13:05.579Z,26.20
2019-05-05T23:15:34.709Z,26.20
2019-05-05T23:18:12.728Z,26.20
2019-05-05T23:20:47.633Z,26.30
2019-05-05T23:23:19.541Z,26.20
2019-05-05T23:25:48.341Z,26.20
2019-05-05T23:28:15.227Z,26.30
2019-05-05T23:30:44.663Z,26.20
2019-05-05T23:33:11.374Z,26.30
2019-05-05T23:35:38.452Z,26.40
2019-05-05T23:38:05.655Z,26.60
2019-05-05T23:40:33.950Z,26.70
2019-05-05T23:43:01.110Z,27.40
2019-05-05T23:45:28.582Z,26.70
2019-05-05T23:47:56.002Z,27.00
2019-05-05T23:50:23.527Z,26.90
2019-05-05T23:52:50.557Z,26.80
2019-05-05T23:55:17.379Z,27.00
2019-05-05T23:57:44.358Z,27.10
